Time;durP1;ratioP1;P1;durP2;ratioP2;P2;SDS_P1;SDS_P2;PMS_P1;PMS_P2;Temp;Humidity;BMP_temperature;BMP_pressure;BME280_temperature;BME280_humidity;BME280_pressure;Samples;Min_cycle;Max_cycle;Signal;HPM_P1;HPM_P2
2023/12/02 00:01:28;;;;;;;25.38;15.15;;;;;;;;;;5011462;28;20034;-64
2023/12/02 00:03:54;;;;;;;22.73;14.05;;;;;;;;;;5002848;28;20399;-63
2023/12/02 00:06:20;;;;;;;24.55;15.65;;;;;;;;;;4997656;28;20417;-63
2023/12/02 00:08:46;;;;;;;24.55;15.45;;;;;;;;;;5008295;28;20041;-64
2023/12/02 00:11:11;;;;;;;24.48;15.70;;;;;;;;;;5015348;28;20041;-62
2023/12/02 00:13:38;;;;;;;27.88;16.15;;;;;;;;;;5017262;28;20404;-62
2023/12/02 00:16:04;;;;;;;24.85;15.18;;;;;;;;;;5009986;28;20061;-62
2023/12/02 00:18:30;;;;;;;25.70;16.20;;;;;;;;;;5002145;28;20045;-63
2023/12/02 00:20:56;;;;;;;23.80;15.18;;;;;;;;;;5008502;28;20042;-63
2023/12/02 00:23:22;;;;;;;22.05;14.27;;;;;;;;;;5003476;28;20045;-63
2023/12/02 00:25:48;;;;;;;23.33;15.00;;;;;;;;;;5016843;28;20051;-63
2023/12/02 00:28:14;;;;;;;22.50;14.02;;;;;;;;;;5019633;28;20124;-62
2023/12/02 00:30:40;;;;;;;20.95;14.25;;;;;;;;;;5009939;28;20096;-63
2023/12/02 00:33:06;;;;;;;20.83;13.35;;;;;;;;;;5004549;28;20128;-63
2023/12/02 00:35:32;;;;;;;22.27;13.60;;;;;;;;;;5006629;28;20490;-63
2023/12/02 00:37:58;;;;;;;20.73;12.95;;;;;;;;;;5000962;28;20052;-63
2023/12/02 00:40:24;;;;;;;22.67;12.07;;;;;;;;;;5015658;28;20081;-62
2023/12/02 00:42:50;;;;;;;17.63;11.05;;;;;;;;;;5007195;28;20430;-62
2023/12/02 00:45:16;;;;;;;20.77;12.27;;;;;;;;;;5011150;28;20072;-63
2023/12/02 00:47:42;;;;;;;19.05;12.25;;;;;;;;;;5009230;28;20038;-62
2023/12/02 00:50:08;;;;;;;17.95;11.02;;;;;;;;;;5001603;28;20124;-63
2023/12/02 00:52:34;;;;;;;17.95;11.00;;;;;;;;;;5008972;28;20049;-63
2023/12/02 00:55:00;;;;;;;19.10;11.82;;;;;;;;;;5001747;28;20038;-62
2023/12/02 00:57:26;;;;;;;18.65;11.52;;;;;;;;;;5011734;28;20033;-62
2023/12/02 00:59:52;;;;;;;17.63;10.90;;;;;;;;;;5015977;28;20063;-62
2023/12/02 01:02:18;;;;;;;18.80;11.65;;;;;;;;;;5005040;28;20041;-63
2023/12/02 01:04:44;;;;;;;18.48;11.45;;;;;;;;;;5016638;28;20041;-62
2023/12/02 01:07:10;;;;;;;18.98;11.88;;;;;;;;;;5007009;28;20077;-63
2023/12/02 01:09:36;;;;;;;17.20;11.65;;;;;;;;;;5011462;28;20124;-63
2023/12/02 01:12:02;;;;;;;19.02;11.48;;;;;;;;;;5016148;28;20379;-63
2023/12/02 01:14:28;;;;;;;17.10;10.55;;;;;;;;;;5007924;28;20038;-62
2023/12/02 01:16:54;;;;;;;17.38;12.07;;;;;;;;;;5012329;28;20235;-62
2023/12/02 01:19:21;;;;;;;16.38;10.10;;;;;;;;;;5011175;28;20034;-62
2023/12/02 01:21:47;;;;;;;16.23;10.23;;;;;;;;;;5007630;28;20033;-65
2023/12/02 01:24:14;;;;;;;21.70;12.55;;;;;;;;;;5016605;28;20638;-64
2023/12/02 01:26:40;;;;;;;21.30;12.00;;;;;;;;;;5000418;28;20048;-65
2023/12/02 01:29:06;;;;;;;21.58;12.13;;;;;;;;;;4999890;28;20038;-65
2023/12/02 01:31:32;;;;;;;19.42;12.00;;;;;;;;;;5002157;28;20284;-64
2023/12/02 01:33:58;;;;;;;18.73;11.98;;;;;;;;;;5021484;28;20152;-65
2023/12/02 01:36:24;;;;;;;18.80;12.07;;;;;;;;;;5009896;28;20029;-64
2023/12/02 01:38:50;;;;;;;18.67;11.65;;;;;;;;;;5011114;28;20471;-65
2023/12/02 01:41:16;;;;;;;18.10;12.07;;;;;;;;;;5011556;28;20049;-64
2023/12/02 01:43:44;;;;;;;17.90;11.38;;;;;;;;;;5010609;28;20404;-65
2023/12/02 01:46:09;;;;;;;16.25;10.88;;;;;;;;;;5005783;28;20125;-64
2023/12/02 01:48:36;;;;;;;17.90;10.50;;;;;;;;;;5010996;28;20117;-64
2023/12/02 01:51:03;;;;;;;14.13;9.75;;;;;;;;;;5000356;28;20470;-64
2023/12/02 01:53:29;;;;;;;19.90;12.45;;;;;;;;;;4998879;28;20096;-65
2023/12/02 01:55:55;;;;;;;19.02;12.23;;;;;;;;;;5002217;28;20043;-64
2023/12/02 01:58:21;;;;;;;18.60;12.50;;;;;;;;;;5004495;28;20401;-64
2023/12/02 02:00:47;;;;;;;18.27;11.10;;;;;;;;;;5008597;28;20045;-64
2023/12/02 02:03:13;;;;;;;16.23;10.90;;;;;;;;;;5009871;28;20128;-64
2023/12/02 02:05:39;;;;;;;18.60;11.02;;;;;;;;;;4994635;28;20079;-64
2023/12/02 02:08:05;;;;;;;18.35;11.65;;;;;;;;;;4996140;28;20041;-65
2023/12/02 02:10:31;;;;;;;16.90;10.40;;;;;;;;;;5022831;28;20040;-64
2023/12/02 02:12:57;;;;;;;16.85;11.35;;;;;;;;;;5009865;28;20045;-64
2023/12/02 02:15:23;;;;;;;18.20;11.23;;;;;;;;;;4998376;28;20046;-64
2023/12/02 02:17:49;;;;;;;17.30;10.75;;;;;;;;;;5012985;28;20099;-64
2023/12/02 02:20:15;;;;;;;17.08;10.93;;;;;;;;;;5008197;28;20501;-64
2023/12/02 02:22:41;;;;;;;18.45;10.90;;;;;;;;;;5006809;28;20369;-63
2023/12/02 02:25:07;;;;;;;17.40;11.07;;;;;;;;;;5008280;28;20200;-63
2023/12/02 02:27:33;;;;;;;18.25;11.68;;;;;;;;;;5009102;28;20558;-62
2023/12/02 02:29:59;;;;;;;14.52;10.13;;;;;;;;;;4999801;28;20152;-63
2023/12/02 02:32:25;;;;;;;13.02;9.38;;;;;;;;;;5007069;28;20051;-63
2023/12/02 02:34:51;;;;;;;15.80;9.88;;;;;;;;;;5023822;28;20053;-63
2023/12/02 02:37:17;;;;;;;15.85;11.05;;;;;;;;;;5017381;28;20041;-63
2023/12/02 02:39:43;;;;;;;14.68;10.43;;;;;;;;;;5018531;28;20034;-63
2023/12/02 02:42:09;;;;;;;17.83;11.43;;;;;;;;;;5008189;28;20046;-65
2023/12/02 02:44:36;;;;;;;15.77;10.65;;;;;;;;;;5008944;28;20034;-65
2023/12/02 02:47:02;;;;;;;15.52;10.00;;;;;;;;;;5007764;28;20060;-64
2023/12/02 02:49:28;;;;;;;15.65;9.80;;;;;;;;;;5005175;28;20037;-65
2023/12/02 02:51:54;;;;;;;16.35;9.30;;;;;;;;;;5018778;28;20034;-64
2023/12/02 02:54:20;;;;;;;15.30;9.82;;;;;;;;;;5010533;28;20037;-64
2023/12/02 02:56:46;;;;;;;15.63;9.77;;;;;;;;;;5014430;28;20172;-65
2023/12/02 02:59:13;;;;;;;14.60;9.30;;;;;;;;;;5018628;28;20057;-65
2023/12/02 03:01:40;;;;;;;15.15;8.73;;;;;;;;;;5019734;28;20029;-64
2023/12/02 03:04:06;;;;;;;16.55;9.35;;;;;;;;;;5019598;28;20037;-64
2023/12/02 03:06:32;;;;;;;14.25;8.93;;;;;;;;;;5018836;28;20087;-65
2023/12/02 03:08:58;;;;;;;13.63;8.57;;;;;;;;;;5016476;28;20025;-64
2023/12/02 03:11:24;;;;;;;17.17;9.65;;;;;;;;;;5016329;28;20033;-65
2023/12/02 03:13:50;;;;;;;15.10;9.05;;;;;;;;;;5007602;28;20038;-64
2023/12/02 03:16:16;;;;;;;12.95;9.05;;;;;;;;;;5018881;28;20034;-64
2023/12/02 03:18:42;;;;;;;15.80;9.60;;;;;;;;;;5018677;28;20038;-64
2023/12/02 03:21:08;;;;;;;15.57;9.88;;;;;;;;;;5005521;28;20061;-65
2023/12/02 03:23:34;;;;;;;13.82;9.48;;;;;;;;;;5003506;28;20096;-65
2023/12/02 03:26:00;;;;;;;13.93;9.02;;;;;;;;;;5009266;28;20504;-64
2023/12/02 03:28:26;;;;;;;14.65;8.40;;;;;;;;;;4998052;28;20624;-65
2023/12/02 03:30:53;;;;;;;12.10;8.52;;;;;;;;;;5006802;28;20042;-64
2023/12/02 03:33:19;;;;;;;14.75;8.50;;;;;;;;;;5001522;28;20474;-64
2023/12/02 03:35:45;;;;;;;13.52;8.55;;;;;;;;;;5009022;28;20034;-64
2023/12/02 03:38:11;;;;;;;14.35;9.25;;;;;;;;;;5007403;28;20044;-64
2023/12/02 03:40:37;;;;;;;13.27;8.77;;;;;;;;;;5007564;28;20141;-65
2023/12/02 03:43:03;;;;;;;14.52;9.43;;;;;;;;;;5008587;28;20052;-64
2023/12/02 03:45:29;;;;;;;14.70;9.55;;;;;;;;;;5012732;28;20474;-65
2023/12/02 03:47:55;;;;;;;13.80;8.80;;;;;;;;;;5010165;28;20036;-64
2023/12/02 03:50:21;;;;;;;13.60;8.77;;;;;;;;;;5004726;28;20511;-63
2023/12/02 03:52:47;;;;;;;14.10;8.70;;;;;;;;;;5012360;28;20045;-65
2023/12/02 03:55:13;;;;;;;14.27;7.75;;;;;;;;;;5012157;28;20037;-64
2023/12/02 03:57:39;;;;;;;14.80;8.57;;;;;;;;;;5001913;28;20240;-64
2023/12/02 04:00:13;;;;;;;13.48;8.85;;;;;;;;;;5006635;28;20098;-65
2023/12/02 04:02:39;;;;;;;12.60;8.38;;;;;;;;;;5013861;28;20116;-63
2023/12/02 04:05:08;;;;;;;13.93;9.43;;;;;;;;;;5006462;28;20034;-64
2023/12/02 04:07:34;;;;;;;14.02;8.95;;;;;;;;;;5021487;28;20048;-62
2023/12/02 04:10:02;;;;;;;13.40;9.25;;;;;;;;;;5017263;28;20038;-63
2023/12/02 04:12:28;;;;;;;12.73;8.98;;;;;;;;;;5015892;28;20141;-63
2023/12/02 04:14:55;;;;;;;15.48;9.73;;;;;;;;;;5015817;28;20042;-63
2023/12/02 04:17:21;;;;;;;14.73;8.50;;;;;;;;;;5013339;28;20405;-63
2023/12/02 04:19:47;;;;;;;4.82;4.38;;;;;;;;;;5014674;28;20044;-63
2023/12/02 04:22:13;;;;;;;14.73;10.00;;;;;;;;;;5015206;28;20034;-63
2023/12/02 04:24:39;;;;;;;13.95;8.95;;;;;;;;;;5017161;28;20030;-64
2023/12/02 04:27:07;;;;;;;15.50;9.70;;;;;;;;;;5006525;28;20121;-64
2023/12/02 04:29:35;;;;;;;13.45;8.30;;;;;;;;;;5011479;28;21157;-63
2023/12/02 04:32:01;;;;;;;11.07;8.05;;;;;;;;;;5019495;28;20041;-63
2023/12/02 04:34:27;;;;;;;8.48;6.55;;;;;;;;;;5006293;28;20336;-63
2023/12/02 04:36:53;;;;;;;12.27;8.60;;;;;;;;;;5005257;28;20038;-63
2023/12/02 04:39:21;;;;;;;10.05;7.35;;;;;;;;;;5013158;28;20178;-63
2023/12/02 04:41:47;;;;;;;13.13;9.27;;;;;;;;;;5008508;28;20052;-63
2023/12/02 04:44:13;;;;;;;12.48;9.57;;;;;;;;;;5010660;28;20123;-62
2023/12/02 04:46:39;;;;;;;0.80;0.57;;;;;;;;;;5014568;28;20034;-63
2023/12/02 04:49:05;;;;;;;0.00;0.00;;;;;;;;;;5017735;28;20038;-63
2023/12/02 04:51:31;;;;;;;0.00;0.00;;;;;;;;;;5010974;28;20034;-65
2023/12/02 04:53:57;;;;;;;0.00;0.00;;;;;;;;;;5015324;28;20786;-64
2023/12/02 04:56:23;;;;;;;0.00;0.00;;;;;;;;;;5005816;28;20557;-65
2023/12/02 04:58:48;;;;;;;0.00;0.00;;;;;;;;;;5016092;28;20078;-65
2023/12/02 05:01:14;;;;;;;0.00;0.00;;;;;;;;;;5009102;28;20049;-64
2023/12/02 05:03:40;;;;;;;0.00;0.00;;;;;;;;;;5006162;28;20039;-64
2023/12/02 05:06:08;;;;;;;0.00;0.00;;;;;;;;;;4998121;28;20519;-64
2023/12/02 05:08:34;;;;;;;0.00;0.00;;;;;;;;;;5011019;28;20031;-64
2023/12/02 05:11:00;;;;;;;0.00;0.00;;;;;;;;;;5005537;28;20494;-64
2023/12/02 05:13:26;;;;;;;0.00;0.00;;;;;;;;;;5000849;28;20445;-65
2023/12/02 05:15:52;;;;;;;0.00;0.00;;;;;;;;;;5015060;28;20393;-65
2023/12/02 05:18:17;;;;;;;0.00;0.00;;;;;;;;;;5005600;28;20429;-65
2023/12/02 05:20:43;;;;;;;0.00;0.00;;;;;;;;;;5009580;28;20397;-62
2023/12/02 05:23:09;;;;;;;0.00;0.00;;;;;;;;;;5002770;28;20469;-62
2023/12/02 05:25:35;;;;;;;0.00;0.00;;;;;;;;;;5004467;28;20385;-63
2023/12/02 05:28:01;;;;;;;0.00;0.00;;;;;;;;;;5008838;28;20402;-63
2023/12/02 05:30:27;;;;;;;0.00;0.00;;;;;;;;;;5015644;28;20072;-63
2023/12/02 05:32:53;;;;;;;0.00;0.00;;;;;;;;;;5017240;28;20037;-63
2023/12/02 05:35:21;;;;;;;0.00;0.00;;;;;;;;;;5017220;28;20522;-63
2023/12/02 05:37:47;;;;;;;0.00;0.00;;;;;;;;;;5019342;28;20550;-63
2023/12/02 05:40:14;;;;;;;0.00;0.00;;;;;;;;;;5004871;28;20038;-63
2023/12/02 05:42:39;;;;;;;0.00;0.00;;;;;;;;;;5011333;28;20154;-63
2023/12/02 05:45:06;;;;;;;9.48;7.43;;;;;;;;;;5011304;28;20038;-62
2023/12/02 05:47:32;;;;;;;14.73;10.52;;;;;;;;;;5008159;28;20564;-62
2023/12/02 05:49:58;;;;;;;13.63;9.63;;;;;;;;;;5001527;28;20073;-62
2023/12/02 05:52:24;;;;;;;11.88;7.68;;;;;;;;;;5006973;28;20490;-63
2023/12/02 05:54:50;;;;;;;0.00;0.00;;;;;;;;;;5002559;28;20532;-64
2023/12/02 05:57:16;;;;;;;0.00;0.00;;;;;;;;;;5013577;28;20596;-63
2023/12/02 05:59:41;;;;;;;16.27;9.93;;;;;;;;;;5010451;28;20061;-63
2023/12/02 06:02:07;;;;;;;15.45;10.13;;;;;;;;;;5010846;28;20034;-62
2023/12/02 06:04:33;;;;;;;14.80;9.90;;;;;;;;;;5014965;28;20030;-62
2023/12/02 06:06:59;;;;;;;17.48;11.63;;;;;;;;;;5009782;28;20079;-63
2023/12/02 06:09:25;;;;;;;16.45;10.55;;;;;;;;;;5006014;28;20044;-63
2023/12/02 06:11:51;;;;;;;13.95;8.45;;;;;;;;;;5016376;28;20033;-62
2023/12/02 06:14:17;;;;;;;14.82;10.23;;;;;;;;;;5016765;28;20519;-63
2023/12/02 06:16:43;;;;;;;16.67;10.70;;;;;;;;;;5023042;28;20029;-63
2023/12/02 06:19:11;;;;;;;18.05;11.23;;;;;;;;;;5019430;28;20377;-63
2023/12/02 06:21:37;;;;;;;18.20;11.98;;;;;;;;;;5013954;28;20513;-62
2023/12/02 06:24:04;;;;;;;17.17;10.98;;;;;;;;;;5000991;28;20045;-63
2023/12/02 06:26:30;;;;;;;15.07;10.30;;;;;;;;;;5005428;28;20156;-62
2023/12/02 06:28:55;;;;;;;15.20;9.90;;;;;;;;;;5014858;28;20109;-62
2023/12/02 06:31:21;;;;;;;15.32;9.05;;;;;;;;;;5016516;28;20038;-63
2023/12/02 06:33:48;;;;;;;10.55;7.57;;;;;;;;;;5015767;28;20041;-62
2023/12/02 06:36:14;;;;;;;0.00;0.00;;;;;;;;;;5011311;28;20061;-63
2023/12/02 06:38:40;;;;;;;0.00;0.00;;;;;;;;;;5002468;28;20061;-63
2023/12/02 06:41:06;;;;;;;0.00;0.00;;;;;;;;;;5017340;28;20186;-63
2023/12/02 06:43:32;;;;;;;0.00;0.00;;;;;;;;;;5018677;28;20401;-62
2023/12/02 06:45:58;;;;;;;0.00;0.00;;;;;;;;;;5023307;28;20032;-63
2023/12/02 06:48:24;;;;;;;0.00;0.00;;;;;;;;;;5015797;28;20034;-63
2023/12/02 06:50:50;;;;;;;0.00;0.00;;;;;;;;;;5011934;28;20121;-63
2023/12/02 06:53:16;;;;;;;0.00;0.00;;;;;;;;;;5019190;28;20134;-62
2023/12/02 06:55:43;;;;;;;0.00;0.00;;;;;;;;;;5015917;28;20026;-63
2023/12/02 06:58:09;;;;;;;0.00;0.00;;;;;;;;;;5001966;28;20065;-63
2023/12/02 07:00:35;;;;;;;0.00;0.00;;;;;;;;;;5015381;28;20061;-62
2023/12/02 07:03:01;;;;;;;0.00;0.00;;;;;;;;;;5023910;28;20091;-62
2023/12/02 07:05:27;;;;;;;12.50;7.90;;;;;;;;;;5007013;28;20066;-63
2023/12/02 07:07:53;;;;;;;7.60;4.68;;;;;;;;;;5009223;28;20068;-63
2023/12/02 07:10:19;;;;;;;0.00;0.00;;;;;;;;;;5012813;28;20095;-62
2023/12/02 07:12:45;;;;;;;0.00;0.00;;;;;;;;;;5020175;28;20608;-62
2023/12/02 07:15:11;;;;;;;0.00;0.00;;;;;;;;;;5022773;28;20041;-63
2023/12/02 07:17:37;;;;;;;0.00;0.00;;;;;;;;;;5014491;28;20064;-63
2023/12/02 07:20:03;;;;;;;0.00;0.00;;;;;;;;;;5007726;28;20042;-63
2023/12/02 07:22:29;;;;;;;0.00;0.00;;;;;;;;;;5017078;28;20038;-62
2023/12/02 07:24:55;;;;;;;0.00;0.00;;;;;;;;;;5011730;28;20037;-62
2023/12/02 07:27:21;;;;;;;0.00;0.00;;;;;;;;;;5001262;28;20046;-62
2023/12/02 07:29:47;;;;;;;0.00;0.00;;;;;;;;;;4997475;28;20050;-62
2023/12/02 07:32:13;;;;;;;0.00;0.00;;;;;;;;;;5001078;28;20793;-63
2023/12/02 07:34:39;;;;;;;0.00;0.00;;;;;;;;;;5019003;28;20034;-62
2023/12/02 07:37:05;;;;;;;0.00;0.00;;;;;;;;;;5003889;28;20026;-62
2023/12/02 07:39:31;;;;;;;0.00;0.00;;;;;;;;;;5013119;28;20025;-63
2023/12/02 07:41:57;;;;;;;0.00;0.00;;;;;;;;;;5018452;28;20121;-62
2023/12/02 07:44:24;;;;;;;0.00;0.00;;;;;;;;;;5008532;28;20034;-62
2023/12/02 07:46:50;;;;;;;0.00;0.00;;;;;;;;;;5011050;28;20060;-63
2023/12/02 07:49:16;;;;;;;0.00;0.00;;;;;;;;;;5013079;28;20036;-63
2023/12/02 07:51:42;;;;;;;2.90;1.88;;;;;;;;;;5016490;28;20029;-62
2023/12/02 07:54:08;;;;;;;22.05;12.85;;;;;;;;;;5015901;28;20037;-62
2023/12/02 07:56:36;;;;;;;24.52;13.93;;;;;;;;;;5015127;28;20072;-62
2023/12/02 07:59:02;;;;;;;23.73;14.07;;;;;;;;;;5007772;28;20470;-62
2023/12/02 08:01:28;;;;;;;27.08;15.32;;;;;;;;;;5008205;28;20092;-63
2023/12/02 08:03:54;;;;;;;28.17;16.25;;;;;;;;;;5007378;28;20333;-62
2023/12/02 08:06:19;;;;;;;24.70;14.95;;;;;;;;;;5018430;28;20087;-61
2023/12/02 08:08:47;;;;;;;25.33;14.93;;;;;;;;;;4999771;28;20121;-63
2023/12/02 08:11:13;;;;;;;26.08;14.63;;;;;;;;;;5000085;28;20038;-62
2023/12/02 08:13:39;;;;;;;24.85;14.57;;;;;;;;;;5014429;28;20046;-63
2023/12/02 08:16:05;;;;;;;24.38;13.88;;;;;;;;;;5014825;28;20039;-62
2023/12/02 08:18:31;;;;;;;24.52;13.45;;;;;;;;;;5015430;28;20504;-63
2023/12/02 08:20:57;;;;;;;25.00;13.82;;;;;;;;;;5018457;28;20033;-63
2023/12/02 08:23:23;;;;;;;24.13;13.70;;;;;;;;;;5016301;28;20045;-62
2023/12/02 08:25:49;;;;;;;23.70;13.15;;;;;;;;;;5014947;28;20076;-63
2023/12/02 08:28:15;;;;;;;25.00;13.15;;;;;;;;;;5014051;28;20068;-62
2023/12/02 08:30:41;;;;;;;21.85;13.30;;;;;;;;;;5014054;28;20037;-62
2023/12/02 08:33:07;;;;;;;21.52;13.45;;;;;;;;;;5004152;28;20156;-62
2023/12/02 08:35:33;;;;;;;22.70;13.35;;;;;;;;;;5014653;28;20052;-62
2023/12/02 08:37:59;;;;;;;23.13;13.85;;;;;;;;;;5016749;28;20453;-62
2023/12/02 08:40:25;;;;;;;24.48;15.23;;;;;;;;;;5018251;28;20115;-62
2023/12/02 08:42:51;;;;;;;25.92;15.23;;;;;;;;;;5017798;28;20042;-64
2023/12/02 08:45:17;;;;;;;25.90;15.20;;;;;;;;;;5016803;28;20132;-65
2023/12/02 08:47:43;;;;;;;28.80;16.25;;;;;;;;;;5017089;28;20103;-66
2023/12/02 08:50:09;;;;;;;26.83;14.18;;;;;;;;;;5010181;28;20029;-66
2023/12/02 08:52:35;;;;;;;25.60;12.88;;;;;;;;;;5011798;28;20041;-66
2023/12/02 08:55:02;;;;;;;21.50;13.60;;;;;;;;;;5013871;28;20047;-66
2023/12/02 08:57:28;;;;;;;26.25;14.05;;;;;;;;;;5017209;28;20457;-66
2023/12/02 08:59:54;;;;;;;24.95;14.43;;;;;;;;;;5017502;28;20132;-66
2023/12/02 09:02:20;;;;;;;5.00;2.92;;;;;;;;;;5015107;28;20036;-67
2023/12/02 09:04:47;;;;;;;0.00;0.00;;;;;;;;;;5015887;28;20515;-66
2023/12/02 09:07:13;;;;;;;0.00;0.00;;;;;;;;;;5015009;28;20032;-66
2023/12/02 09:09:39;;;;;;;0.00;0.00;;;;;;;;;;5013185;28;20029;-67
2023/12/02 09:12:05;;;;;;;20.13;10.93;;;;;;;;;;5012861;28;20056;-67
2023/12/02 09:14:31;;;;;;;22.52;13.88;;;;;;;;;;5013867;28;20508;-66
2023/12/02 09:16:57;;;;;;;29.10;15.77;;;;;;;;;;5007214;28;20441;-66
2023/12/02 09:19:23;;;;;;;28.55;15.80;;;;;;;;;;5003185;28;20041;-67
2023/12/02 09:21:49;;;;;;;32.13;16.30;;;;;;;;;;5009028;28;20041;-67
2023/12/02 09:24:44;;;;;;;10.95;5.60;;;;;;;;;;5015614;28;20038;-66
2023/12/02 09:27:30;;;;;;;0.00;0.00;;;;;;;;;;5011296;28;20170;-66
2023/12/02 09:29:56;;;;;;;0.00;0.00;;;;;;;;;;5014072;28;20036;-68
2023/12/02 09:32:25;;;;;;;0.00;0.00;;;;;;;;;;5016506;28;20049;-66
2023/12/02 09:34:58;;;;;;;0.00;0.00;;;;;;;;;;5009621;28;20048;-66
2023/12/02 09:37:40;;;;;;;0.00;0.00;;;;;;;;;;5016836;28;20037;-66
2023/12/02 09:40:05;;;;;;;0.00;0.00;;;;;;;;;;5013872;28;20095;-66
2023/12/02 09:42:31;;;;;;;0.00;0.00;;;;;;;;;;5006272;28;20049;-66
2023/12/02 09:45:02;;;;;;;0.00;0.00;;;;;;;;;;5015073;28;20069;-66
2023/12/02 09:47:30;;;;;;;0.00;0.00;;;;;;;;;;5002007;28;20390;-66
2023/12/02 09:50:09;;;;;;;0.00;0.00;;;;;;;;;;5000000;28;20052;-66
2023/12/02 09:52:53;;;;;;;0.00;0.00;;;;;;;;;;5014770;28;20476;-66
2023/12/02 09:55:26;;;;;;;18.00;9.95;;;;;;;;;;5016048;28;20503;-67
2023/12/02 09:58:07;;;;;;;32.10;17.17;;;;;;;;;;5017546;28;20124;-66
2023/12/02 10:00:41;;;;;;;48.50;23.58;;;;;;;;;;5013972;28;20930;-62
2023/12/02 10:03:21;;;;;;;49.75;22.85;;;;;;;;;;5012373;28;20041;-63
2023/12/02 10:05:59;;;;;;;53.10;25.75;;;;;;;;;;5019672;28;20398;-62
2023/12/02 10:08:26;;;;;;;38.40;20.63;;;;;;;;;;5003918;28;20091;-64
2023/12/02 10:11:02;;;;;;;31.83;17.33;;;;;;;;;;5016974;28;20034;-66
2023/12/02 10:13:36;;;;;;;32.85;17.92;;;;;;;;;;5015159;28;20038;-66
2023/12/02 10:16:06;;;;;;;33.28;17.63;;;;;;;;;;4999105;28;20034;-66
2023/12/02 10:18:37;;;;;;;30.27;17.27;;;;;;;;;;5016605;28;20068;-66
2023/12/02 10:21:06;;;;;;;31.48;16.13;;;;;;;;;;5010523;28;20515;-66
2023/12/02 10:23:34;;;;;;;27.27;15.55;;;;;;;;;;5007783;28;20033;-66
2023/12/02 10:26:13;;;;;;;25.92;14.85;;;;;;;;;;5017516;28;20048;-66
2023/12/02 10:28:45;;;;;;;14.98;9.40;;;;;;;;;;5003090;28;20096;-67
2023/12/02 10:31:16;;;;;;;25.98;15.20;;;;;;;;;;5011208;28;20038;-66
2023/12/02 10:33:42;;;;;;;20.92;13.73;;;;;;;;;;5002477;28;20069;-66
2023/12/02 10:36:10;;;;;;;23.25;14.65;;;;;;;;;;5004598;28;20065;-66
2023/12/02 10:38:52;;;;;;;20.73;13.48;;;;;;;;;;5012362;28;20034;-66
2023/12/02 10:41:31;;;;;;;17.13;11.43;;;;;;;;;;5015973;28;20097;-67
2023/12/02 10:44:02;;;;;;;6.22;3.65;;;;;;;;;;5016263;28;20046;-66
2023/12/02 10:46:28;;;;;;;12.35;7.75;;;;;;;;;;5009540;28;20489;-67
2023/12/02 10:48:54;;;;;;;22.73;13.38;;;;;;;;;;5014281;28;20466;-66
2023/12/02 10:51:22;;;;;;;20.88;12.40;;;;;;;;;;5020875;28;20037;-67
2023/12/02 10:53:50;;;;;;;22.23;13.65;;;;;;;;;;5017293;28;20049;-66
2023/12/02 10:56:23;;;;;;;13.30;8.20;;;;;;;;;;5015500;28;20103;-66
2023/12/02 10:58:53;;;;;;;0.00;0.00;;;;;;;;;;5004984;28;20039;-66
2023/12/02 11:01:25;;;;;;;5.32;3.38;;;;;;;;;;5008491;28;20072;-66
2023/12/02 11:03:51;;;;;;;22.30;13.75;;;;;;;;;;5005877;28;20034;-66
2023/12/02 11:06:36;;;;;;;21.25;13.25;;;;;;;;;;5007003;28;21021;-68
2023/12/02 11:09:02;;;;;;;27.77;15.30;;;;;;;;;;5017474;28;20096;-67
2023/12/02 11:11:48;;;;;;;34.13;17.60;;;;;;;;;;5007516;28;20037;-67
2023/12/02 11:14:17;;;;;;;24.40;13.70;;;;;;;;;;4985162;28;20069;-67
2023/12/02 11:17:02;;;;;;;33.78;18.80;;;;;;;;;;5017687;28;20038;-67
2023/12/02 11:20:05;;;;;;;5.40;3.20;;;;;;;;;;5014616;28;20366;-68
2023/12/02 11:22:37;;;;;;;3.15;1.60;;;;;;;;;;4988405;28;20555;-64
2023/12/02 11:25:07;;;;;;;19.17;10.50;;;;;;;;;;5020037;28;20029;-64
2023/12/02 11:27:52;;;;;;;22.17;13.45;;;;;;;;;;5016262;28;20064;-65
2023/12/02 11:30:30;;;;;;;24.60;12.98;;;;;;;;;;5014189;28;20132;-65
2023/12/02 11:33:05;;;;;;;23.75;13.35;;;;;;;;;;5002894;28;20501;-64
2023/12/02 11:35:48;;;;;;;21.50;12.90;;;;;;;;;;5004632;28;20714;-63
2023/12/02 11:38:18;;;;;;;23.10;13.40;;;;;;;;;;4999769;28;20481;-65
2023/12/02 11:41:04;;;;;;;23.33;13.13;;;;;;;;;;5022464;28;20025;-66
2023/12/02 11:43:52;;;;;;;23.50;13.45;;;;;;;;;;5004115;28;20080;-64
2023/12/02 11:46:23;;;;;;;24.70;13.55;;;;;;;;;;5018359;28;20076;-64
2023/12/02 11:48:52;;;;;;;24.80;13.95;;;;;;;;;;5015167;28;20481;-65
2023/12/02 11:51:31;;;;;;;23.60;13.35;;;;;;;;;;5001539;28;20045;-63
2023/12/02 11:54:00;;;;;;;24.70;13.82;;;;;;;;;;5014073;28;20148;-65
2023/12/02 11:56:26;;;;;;;26.52;14.10;;;;;;;;;;5017048;28;20038;-64
2023/12/02 11:58:58;;;;;;;22.83;13.10;;;;;;;;;;5006806;28;20042;-65
2023/12/02 12:01:31;;;;;;;27.23;14.13;;;;;;;;;;5011343;28;20050;-66
2023/12/02 12:04:16;;;;;;;23.88;13.52;;;;;;;;;;5006314;28;20121;-65
2023/12/02 12:06:48;;;;;;;21.42;12.63;;;;;;;;;;5005529;28;20045;-66
2023/12/02 12:09:21;;;;;;;23.37;13.80;;;;;;;;;;4999809;28;20073;-66
2023/12/02 12:11:48;;;;;;;22.52;13.27;;;;;;;;;;5020065;28;20465;-66
2023/12/02 12:14:14;;;;;;;22.73;13.13;;;;;;;;;;4999733;28;20482;-66
2023/12/02 12:16:40;;;;;;;23.30;13.32;;;;;;;;;;5018123;28;20091;-66
2023/12/02 12:19:06;;;;;;;24.23;13.93;;;;;;;;;;5016752;28;20041;-65
2023/12/02 12:21:33;;;;;;;22.17;13.45;;;;;;;;;;5012841;28;20053;-65
2023/12/02 12:23:59;;;;;;;25.83;14.02;;;;;;;;;;5014212;28;20042;-66
2023/12/02 12:26:25;;;;;;;22.13;13.80;;;;;;;;;;5014777;28;20377;-65
2023/12/02 12:28:52;;;;;;;25.00;15.02;;;;;;;;;;5017229;28;20295;-65
2023/12/02 12:31:19;;;;;;;29.98;17.08;;;;;;;;;;5010251;28;20580;-67
2023/12/02 12:33:51;;;;;;;26.50;14.93;;;;;;;;;;5009497;28;20613;-67
2023/12/02 12:36:26;;;;;;;36.97;19.42;;;;;;;;;;5006033;28;20049;-68
2023/12/02 12:38:54;;;;;;;36.67;19.63;;;;;;;;;;5009778;28;20034;-68
2023/12/02 12:41:21;;;;;;;25.85;15.27;;;;;;;;;;5016786;28;20052;-68
2023/12/02 12:43:47;;;;;;;23.30;14.55;;;;;;;;;;5009245;28;20030;-68
2023/12/02 12:46:13;;;;;;;24.55;13.45;;;;;;;;;;5012073;28;20038;-68
2023/12/02 12:48:39;;;;;;;25.27;15.25;;;;;;;;;;5017225;28;20048;-68
2023/12/02 12:51:07;;;;;;;27.48;14.05;;;;;;;;;;5004448;28;20030;-68
2023/12/02 12:53:36;;;;;;;22.10;14.13;;;;;;;;;;5025690;28;20041;-67
2023/12/02 12:56:11;;;;;;;22.65;14.40;;;;;;;;;;5009410;28;20127;-67
2023/12/02 12:59:15;;;;;;;22.27;13.63;;;;;;;;;;5014482;28;20053;-68
2023/12/02 13:01:50;;;;;;;26.13;14.90;;;;;;;;;;4976819;28;20073;-68
2023/12/02 13:04:35;;;;;;;24.33;15.05;;;;;;;;;;4995171;28;20152;-68
2023/12/02 13:07:03;;;;;;;23.70;14.07;;;;;;;;;;5005196;28;20749;-68
2023/12/02 13:09:31;;;;;;;23.20;14.25;;;;;;;;;;5009740;28;20036;-67
2023/12/02 13:12:09;;;;;;;23.92;14.27;;;;;;;;;;5010400;28;20108;-68
2023/12/02 13:14:40;;;;;;;24.20;13.93;;;;;;;;;;5020835;28;20042;-67
2023/12/02 13:17:07;;;;;;;24.50;14.13;;;;;;;;;;5017601;28;20037;-68
2023/12/02 13:19:34;;;;;;;22.70;14.02;;;;;;;;;;5016505;28;20560;-67
2023/12/02 13:22:01;;;;;;;22.80;13.63;;;;;;;;;;5018249;28;20037;-68
2023/12/02 13:24:29;;;;;;;24.92;14.63;;;;;;;;;;5015988;28;21059;-68
2023/12/02 13:26:55;;;;;;;21.95;13.60;;;;;;;;;;5014849;28;20035;-67
2023/12/02 13:29:27;;;;;;;20.90;13.02;;;;;;;;;;5017092;28;20495;-67
2023/12/02 13:31:53;;;;;;;22.27;13.35;;;;;;;;;;5020001;28;20029;-67
2023/12/02 13:34:30;;;;;;;23.00;13.85;;;;;;;;;;5022015;28;20056;-67
2023/12/02 13:36:56;;;;;;;22.35;13.75;;;;;;;;;;5014468;28;20034;-67
2023/12/02 13:39:26;;;;;;;23.60;14.25;;;;;;;;;;5010287;28;20172;-67
2023/12/02 13:41:53;;;;;;;22.30;13.57;;;;;;;;;;5013611;28;20038;-65
2023/12/02 13:44:21;;;;;;;22.75;14.52;;;;;;;;;;5014266;28;20041;-65
2023/12/02 13:46:50;;;;;;;26.58;15.35;;;;;;;;;;5010469;28;20037;-65
2023/12/02 13:49:17;;;;;;;23.52;14.48;;;;;;;;;;5015707;28;20052;-66
2023/12/02 13:51:46;;;;;;;22.10;14.35;;;;;;;;;;5000631;28;20035;-65
2023/12/02 13:54:22;;;;;;;23.67;14.35;;;;;;;;;;5011830;28;20136;-65
2023/12/02 13:56:54;;;;;;;24.00;14.43;;;;;;;;;;5015652;28;20068;-65
2023/12/02 13:59:22;;;;;;;24.75;15.05;;;;;;;;;;5005303;28;20041;-65
2023/12/02 14:02:11;;;;;;;25.45;16.05;;;;;;;;;;5014321;28;20034;-65
2023/12/02 14:04:44;;;;;;;25.63;14.98;;;;;;;;;;4967770;28;20040;-66
2023/12/02 14:07:10;;;;;;;;;;;;;;;;;;5017491;28;20044;-66
2023/12/02 14:09:39;;;;;;;24.83;14.23;;;;;;;;;;5016601;28;19913;-65
2023/12/02 14:12:28;;;;;;;26.13;14.68;;;;;;;;;;5015338;28;20121;-66
2023/12/02 14:15:03;;;;;;;25.00;15.07;;;;;;;;;;5016301;28;20286;-64
2023/12/02 14:17:45;;;;;;;25.80;14.68;;;;;;;;;;5015749;28;20025;-65
2023/12/02 14:20:23;;;;;;;26.73;14.70;;;;;;;;;;5014134;28;20038;-65
2023/12/02 14:22:49;;;;;;;24.25;14.73;;;;;;;;;;5015239;28;20049;-66
2023/12/02 14:25:20;;;;;;;22.73;14.48;;;;;;;;;;5008763;28;20095;-66
2023/12/02 14:27:51;;;;;;;25.02;14.13;;;;;;;;;;5017629;28;20041;-65
2023/12/02 14:30:36;;;;;;;24.45;13.88;;;;;;;;;;5015525;28;20041;-65
2023/12/02 14:33:20;;;;;;;25.67;14.23;;;;;;;;;;5012195;28;20044;-66